Time;durP1;ratioP1;P1;durP2;ratioP2;P2;SDS_P1;SDS_P2;PMS_P1;PMS_P2;Temp;Humidity;BMP_temperature;BMP_pressure;BME280_temperature;BME280_humidity;BME280_pressure;Samples;Min_cycle;Max_cycle;Signal;HPM_P1;HPM_P2
2021/11/18 00:00:36;;;;;;;14.00;7.78;;;;;;;;;;5111904;28;20023;-66
2021/11/18 00:03:02;;;;;;;12.73;7.63;;;;;;;;;;5110328;28;20448;-65
2021/11/18 00:05:28;;;;;;;16.58;7.72;;;;;;;;;;5111012;28;20015;-66
2021/11/18 00:07:55;;;;;;;16.45;7.88;;;;;;;;;;5110474;28;20051;-66
2021/11/18 00:10:47;;;;;;;12.57;6.45;;;;;;;;;;5112011;28;20486;-65
2021/11/18 00:13:15;;;;;;;10.98;6.50;;;;;;;;;;5108104;28;20093;-65
2021/11/18 00:15:42;;;;;;;12.38;6.15;;;;;;;;;;5112189;28;20080;-67
2021/11/18 00:18:13;;;;;;;13.77;6.88;;;;;;;;;;5110615;28;20386;-65
2021/11/18 00:20:42;;;;;;;16.45;6.78;;;;;;;;;;5110536;28;20027;-65
2021/11/18 00:23:08;;;;;;;12.85;6.75;;;;;;;;;;5110404;28;20059;-68
2021/11/18 00:25:35;;;;;;;10.65;5.30;;;;;;;;;;5110514;27;20036;-67
2021/11/18 00:28:01;;;;;;;16.33;6.47;;;;;;;;;;5113849;28;20095;-67
2021/11/18 00:30:27;;;;;;;7.53;4.57;;;;;;;;;;5109878;28;20160;-66
2021/11/18 00:32:53;;;;;;;11.35;6.20;;;;;;;;;;5110512;28;20479;-66
2021/11/18 00:35:21;;;;;;;13.20;5.47;;;;;;;;;;5110486;28;20054;-66
2021/11/18 00:37:47;;;;;;;7.70;4.25;;;;;;;;;;5109692;28;20380;-66
2021/11/18 00:40:15;;;;;;;9.55;4.70;;;;;;;;;;5112181;28;20023;-67
2021/11/18 00:42:41;;;;;;;8.13;4.00;;;;;;;;;;5111798;28;20024;-66
2021/11/18 00:45:08;;;;;;;11.40;6.03;;;;;;;;;;5112031;28;20026;-67
2021/11/18 00:47:34;;;;;;;6.63;3.78;;;;;;;;;;5109946;28;20108;-67
2021/11/18 00:50:00;;;;;;;12.88;6.47;;;;;;;;;;5109636;28;20123;-67
2021/11/18 00:52:26;;;;;;;9.45;4.88;;;;;;;;;;5110830;28;20024;-67
2021/11/18 00:54:52;;;;;;;12.15;6.70;;;;;;;;;;5112155;28;20498;-67
2021/11/18 00:57:18;;;;;;;9.00;5.50;;;;;;;;;;5109695;28;20080;-67
2021/11/18 00:59:47;;;;;;;11.05;5.50;;;;;;;;;;5109362;28;20016;-67
2021/11/18 01:02:14;;;;;;;14.05;4.80;;;;;;;;;;5109574;28;20453;-67
2021/11/18 01:04:40;;;;;;;8.57;4.43;;;;;;;;;;5109529;28;20024;-67
2021/11/18 01:07:06;;;;;;;13.45;6.53;;;;;;;;;;5112343;28;20482;-67
2021/11/18 01:09:32;;;;;;;10.05;4.93;;;;;;;;;;5111611;28;20714;-67
2021/11/18 01:11:58;;;;;;;12.43;6.38;;;;;;;;;;5109417;28;20110;-67
2021/11/18 01:14:24;;;;;;;11.02;5.28;;;;;;;;;;5111475;28;20094;-67
2021/11/18 01:16:50;;;;;;;11.48;6.32;;;;;;;;;;5109091;28;20059;-67
2021/11/18 01:19:16;;;;;;;9.88;5.05;;;;;;;;;;5111315;28;20036;-67
2021/11/18 01:21:44;;;;;;;12.77;5.72;;;;;;;;;;5111138;28;20138;-66
2021/11/18 01:24:10;;;;;;;9.85;5.07;;;;;;;;;;5109182;28;20039;-67
2021/11/18 01:26:36;;;;;;;12.85;5.72;;;;;;;;;;5109255;28;20019;-67
2021/11/18 01:29:03;;;;;;;13.18;6.22;;;;;;;;;;5109140;28;20737;-66
2021/11/18 01:31:29;;;;;;;12.10;5.60;;;;;;;;;;5093128;28;20035;-67
2021/11/18 01:33:56;;;;;;;10.00;4.97;;;;;;;;;;5112374;28;20027;-66
2021/11/18 01:36:23;;;;;;;9.85;4.85;;;;;;;;;;5108545;28;20035;-67
2021/11/18 01:38:49;;;;;;;11.70;5.40;;;;;;;;;;5109150;28;20118;-67
2021/11/18 01:41:17;;;;;;;9.40;4.97;;;;;;;;;;5108888;28;20368;-67
2021/11/18 01:43:43;;;;;;;;;;;;;;;;;;5111471;28;20030;-65
2021/11/18 01:46:11;;;;;;;10.10;4.75;;;;;;;;;;5111172;28;20345;-67
2021/11/18 01:48:38;;;;;;;9.57;5.53;;;;;;;;;;5109623;28;20478;-67
2021/11/18 01:51:04;;;;;;;12.80;5.72;;;;;;;;;;5108792;28;20038;-67
2021/11/18 01:53:36;;;;;;;11.07;5.35;;;;;;;;;;5108891;28;20055;-67
2021/11/18 01:56:06;;;;;;;11.65;5.85;;;;;;;;;;5108351;27;20027;-67
2021/11/18 01:58:33;;;;;;;9.02;5.25;;;;;;;;;;5092729;28;20110;-67
2021/11/18 02:01:00;;;;;;;9.52;5.50;;;;;;;;;;5111847;28;20069;-66
2021/11/18 02:03:26;;;;;;;9.07;4.85;;;;;;;;;;5110547;28;20382;-67
2021/11/18 02:05:57;;;;;;;10.02;5.07;;;;;;;;;;5107805;28;20383;-67
2021/11/18 02:08:23;;;;;;;8.23;4.57;;;;;;;;;;5108537;28;20509;-66
2021/11/18 02:10:51;;;;;;;8.73;4.40;;;;;;;;;;5108571;28;20056;-67
2021/11/18 02:13:17;;;;;;;10.25;4.80;;;;;;;;;;5109941;28;20107;-67
2021/11/18 02:15:46;;;;;;;11.52;5.07;;;;;;;;;;5111718;28;20105;-67
2021/11/18 02:18:12;;;;;;;;;;;;;;;;;;5108962;28;20062;-64
2021/11/18 02:20:38;;;;;;;9.07;4.32;;;;;;;;;;5108455;28;20371;-66
2021/11/18 02:23:09;;;;;;;8.73;4.43;;;;;;;;;;5108340;28;20079;-66
2021/11/18 02:25:35;;;;;;;12.02;5.30;;;;;;;;;;5107767;28;20023;-67
2021/11/18 02:28:01;;;;;;;11.40;5.53;;;;;;;;;;5111293;28;20394;-66
2021/11/18 02:30:28;;;;;;;10.82;4.85;;;;;;;;;;5108384;28;20023;-66
2021/11/18 02:32:55;;;;;;;10.00;5.13;;;;;;;;;;5108109;28;20028;-66
2021/11/18 02:35:27;;;;;;;9.55;5.47;;;;;;;;;;5108407;28;20468;-66
2021/11/18 02:37:54;;;;;;;10.77;5.25;;;;;;;;;;5107620;28;20041;-66
2021/11/18 02:40:21;;;;;;;9.48;5.05;;;;;;;;;;5109198;28;20024;-66
2021/11/18 02:42:47;;;;;;;8.20;4.05;;;;;;;;;;5110371;28;20265;-66
2021/11/18 02:45:15;;;;;;;8.95;4.78;;;;;;;;;;5110042;28;20036;-66
2021/11/18 02:47:41;;;;;;;10.93;4.57;;;;;;;;;;5107668;28;20024;-66
2021/11/18 02:50:09;;;;;;;5.28;2.85;;;;;;;;;;5108263;28;20110;-65
2021/11/18 02:52:35;;;;;;;9.13;4.30;;;;;;;;;;5107533;28;20027;-65
2021/11/18 02:55:04;;;;;;;11.30;4.35;;;;;;;;;;5111010;28;20107;-66
2021/11/18 02:57:30;;;;;;;9.27;4.70;;;;;;;;;;5108848;28;20248;-65
2021/11/18 02:59:56;;;;;;;9.85;4.13;;;;;;;;;;5107687;28;20043;-66
2021/11/18 03:02:22;;;;;;;7.53;4.15;;;;;;;;;;5107719;28;20024;-65
2021/11/18 03:04:48;;;;;;;7.75;3.83;;;;;;;;;;5107340;28;20107;-66
2021/11/18 03:07:14;;;;;;;7.18;3.13;;;;;;;;;;5110483;28;20016;-65
2021/11/18 03:09:40;;;;;;;9.73;4.50;;;;;;;;;;5104253;28;20039;-66
2021/11/18 03:12:06;;;;;;;11.00;4.57;;;;;;;;;;5105033;28;20023;-66
2021/11/18 03:14:32;;;;;;;11.00;4.57;;;;;;;;;;5109611;28;20023;-65
2021/11/18 03:16:58;;;;;;;10.05;4.43;;;;;;;;;;5109719;28;20111;-65
2021/11/18 03:19:24;;;;;;;10.18;4.10;;;;;;;;;;5112756;28;20051;-66
2021/11/18 03:21:50;;;;;;;9.20;3.55;;;;;;;;;;5114750;28;20534;-65
2021/11/18 03:24:16;;;;;;;8.20;4.10;;;;;;;;;;5111302;28;20028;-65
2021/11/18 03:26:42;;;;;;;8.88;3.75;;;;;;;;;;5111548;28;20034;-66
2021/11/18 03:29:09;;;;;;;16.17;4.70;;;;;;;;;;5111573;28;20036;-66
2021/11/18 03:31:35;;;;;;;10.32;5.40;;;;;;;;;;5111578;28;20500;-66
2021/11/18 03:34:02;;;;;;;10.93;4.70;;;;;;;;;;5113196;28;20015;-66
2021/11/18 03:36:29;;;;;;;26.15;5.78;;;;;;;;;;5111635;28;20518;-66
2021/11/18 03:38:55;;;;;;;45.38;5.78;;;;;;;;;;5109929;28;20039;-66
2021/11/18 03:41:22;;;;;;;106.88;5.88;;;;;;;;;;5111176;28;20394;-66
2021/11/18 03:43:53;;;;;;;55.05;6.10;;;;;;;;;;5112116;28;20027;-66
2021/11/18 03:46:21;;;;;;;18.48;4.88;;;;;;;;;;5113243;28;20055;-66
2021/11/18 03:48:47;;;;;;;;;;;;;;;;;;5113807;28;20032;-66
2021/11/18 03:51:13;;;;;;;22.55;4.47;;;;;;;;;;5112518;28;19953;-65
2021/11/18 03:53:40;;;;;;;19.08;5.75;;;;;;;;;;5110781;28;20028;-65
2021/11/18 03:56:10;;;;;;;11.18;4.82;;;;;;;;;;5110992;28;20061;-66
2021/11/18 03:58:37;;;;;;;19.65;4.45;;;;;;;;;;5111131;28;20047;-66
2021/11/18 04:01:03;;;;;;;19.75;5.18;;;;;;;;;;5114134;28;20032;-66
2021/11/18 04:03:29;;;;;;;35.33;4.75;;;;;;;;;;5109504;28;20028;-66
2021/11/18 04:05:56;;;;;;;41.92;4.95;;;;;;;;;;5110993;27;20062;-66
2021/11/18 04:08:23;;;;;;;39.47;5.30;;;;;;;;;;5110903;28;20051;-66
2021/11/18 04:10:49;;;;;;;36.05;4.30;;;;;;;;;;5111346;28;20016;-65
2021/11/18 04:13:15;;;;;;;43.67;3.90;;;;;;;;;;5112631;27;20028;-65
2021/11/18 04:15:43;;;;;;;24.30;4.13;;;;;;;;;;5112213;28;20049;-65
2021/11/18 04:18:09;;;;;;;34.88;4.22;;;;;;;;;;5110833;28;20103;-65
2021/11/18 04:20:35;;;;;;;40.45;3.80;;;;;;;;;;5110971;28;20028;-65
2021/11/18 04:23:02;;;;;;;81.05;4.97;;;;;;;;;;5106017;28;20090;-66
2021/11/18 04:25:30;;;;;;;40.58;3.65;;;;;;;;;;5106919;28;20028;-66
2021/11/18 04:27:57;;;;;;;42.03;4.53;;;;;;;;;;5106316;28;20050;-67
2021/11/18 04:30:26;;;;;;;27.73;3.00;;;;;;;;;;5107082;28;20889;-65
2021/11/18 04:32:52;;;;;;;25.05;3.67;;;;;;;;;;5108248;28;20115;-65
2021/11/18 04:35:18;;;;;;;23.92;4.35;;;;;;;;;;5109616;28;20027;-65
2021/11/18 04:37:44;;;;;;;43.00;4.45;;;;;;;;;;5104670;28;20043;-66
2021/11/18 04:40:11;;;;;;;39.25;3.40;;;;;;;;;;5106557;28;20027;-65
2021/11/18 04:42:39;;;;;;;74.25;3.85;;;;;;;;;;5111477;28;20027;-67
2021/11/18 04:45:05;;;;;;;64.25;3.80;;;;;;;;;;5112186;28;20073;-67
2021/11/18 04:47:31;;;;;;;25.30;3.20;;;;;;;;;;5110292;28;20047;-68
2021/11/18 04:49:57;;;;;;;41.05;3.30;;;;;;;;;;5109660;28;20058;-67
2021/11/18 04:52:23;;;;;;;28.75;3.10;;;;;;;;;;5111372;28;20506;-66
2021/11/18 04:54:50;;;;;;;66.70;4.15;;;;;;;;;;5111943;28;20019;-66
2021/11/18 04:57:16;;;;;;;14.60;3.20;;;;;;;;;;5109944;28;20391;-67
2021/11/18 04:59:42;;;;;;;11.63;3.95;;;;;;;;;;5109054;28;20035;-66
2021/11/18 05:02:08;;;;;;;51.25;4.07;;;;;;;;;;5108851;28;20027;-66
2021/11/18 05:04:34;;;;;;;37.63;4.22;;;;;;;;;;5108127;28;20035;-67
2021/11/18 05:07:00;;;;;;;25.52;3.85;;;;;;;;;;5113332;28;20024;-66
2021/11/18 05:09:28;;;;;;;41.25;3.42;;;;;;;;;;5111131;28;20023;-67
2021/11/18 05:11:54;;;;;;;36.83;3.30;;;;;;;;;;5109862;28;20027;-67
2021/11/18 05:14:20;;;;;;;32.45;2.85;;;;;;;;;;5111280;28;20035;-67
2021/11/18 05:16:46;;;;;;;50.53;3.33;;;;;;;;;;5109294;27;20401;-67
2021/11/18 05:19:12;;;;;;;26.27;2.95;;;;;;;;;;5110421;28;20040;-67
2021/11/18 05:21:41;;;;;;;51.17;3.67;;;;;;;;;;5110362;28;20128;-67
2021/11/18 05:24:07;;;;;;;58.85;3.63;;;;;;;;;;5109504;28;20023;-67
2021/11/18 05:26:33;;;;;;;42.15;3.25;;;;;;;;;;5108858;28;20026;-67
2021/11/18 05:28:59;;;;;;;68.55;4.40;;;;;;;;;;5109817;28;20117;-66
2021/11/18 05:31:28;;;;;;;69.05;3.60;;;;;;;;;;5109957;28;20059;-66
2021/11/18 05:33:55;;;;;;;60.55;3.40;;;;;;;;;;5111974;28;20386;-68
2021/11/18 05:36:21;;;;;;;82.93;4.05;;;;;;;;;;5109060;28;20024;-65
2021/11/18 05:38:48;;;;;;;78.40;4.07;;;;;;;;;;5109176;28;20039;-67
2021/11/18 05:41:15;;;;;;;74.20;4.78;;;;;;;;;;5106504;28;20043;-67
2021/11/18 05:43:42;;;;;;;43.03;2.95;;;;;;;;;;5111507;28;20106;-67
2021/11/18 05:46:09;;;;;;;36.85;2.97;;;;;;;;;;5110577;28;20020;-66
2021/11/18 05:48:35;;;;;;;26.08;2.63;;;;;;;;;;5109773;28;20038;-66
2021/11/18 05:51:02;;;;;;;44.30;3.05;;;;;;;;;;5109168;28;20516;-66
2021/11/18 05:53:32;;;;;;;25.42;2.45;;;;;;;;;;5108162;28;20032;-67
2021/11/18 05:55:59;;;;;;;36.20;2.72;;;;;;;;;;5108546;28;20015;-66
2021/11/18 05:58:26;;;;;;;29.20;2.83;;;;;;;;;;5109658;28;20403;-67
2021/11/18 06:00:52;;;;;;;43.15;3.38;;;;;;;;;;5111577;28;20050;-67
2021/11/18 06:03:18;;;;;;;38.35;3.45;;;;;;;;;;5108051;28;20043;-67
2021/11/18 06:05:44;;;;;;;102.18;4.70;;;;;;;;;;5108576;28;20050;-69
2021/11/18 06:08:10;;;;;;;14.00;2.75;;;;;;;;;;5108175;28;20450;-67
2021/11/18 06:10:36;;;;;;;32.60;4.05;;;;;;;;;;5108939;28;20034;-67
2021/11/18 06:13:04;;;;;;;44.90;5.18;;;;;;;;;;5111708;28;20449;-66
2021/11/18 06:15:30;;;;;;;32.80;4.53;;;;;;;;;;5111275;28;20028;-66
2021/11/18 06:17:56;;;;;;;23.38;4.18;;;;;;;;;;5107998;28;20566;-66
2021/11/18 06:20:22;;;;;;;15.93;4.75;;;;;;;;;;5107069;28;20028;-67
2021/11/18 06:22:48;;;;;;;22.58;5.10;;;;;;;;;;5108460;28;20024;-67
2021/11/18 06:25:16;;;;;;;67.80;5.50;;;;;;;;;;5110870;28;20027;-68
2021/11/18 06:27:43;;;;;;;108.28;5.35;;;;;;;;;;5109905;28;20028;-68
2021/11/18 06:30:11;;;;;;;47.28;3.83;;;;;;;;;;5107221;28;20016;-68
2021/11/18 06:32:37;;;;;;;48.47;3.90;;;;;;;;;;5107540;28;20069;-67
2021/11/18 06:35:04;;;;;;;18.23;2.97;;;;;;;;;;5108050;28;20028;-67
2021/11/18 06:37:30;;;;;;;87.45;4.65;;;;;;;;;;5108348;28;20072;-67
2021/11/18 06:39:56;;;;;;;65.72;5.35;;;;;;;;;;5111754;28;20440;-67
2021/11/18 06:42:22;;;;;;;42.83;4.68;;;;;;;;;;5108173;28;20024;-67
2021/11/18 06:44:48;;;;;;;28.33;5.00;;;;;;;;;;5109927;28;20092;-67
2021/11/18 06:47:14;;;;;;;46.53;4.13;;;;;;;;;;5109092;28;20064;-67
2021/11/18 06:49:40;;;;;;;30.70;4.80;;;;;;;;;;5108228;28;20469;-67
2021/11/18 06:52:08;;;;;;;12.15;3.95;;;;;;;;;;5110023;28;20063;-67
2021/11/18 06:54:35;;;;;;;25.30;3.67;;;;;;;;;;5110649;28;20024;-67
2021/11/18 06:57:01;;;;;;;30.13;4.05;;;;;;;;;;5108100;28;20020;-66
2021/11/18 06:59:27;;;;;;;57.20;7.22;;;;;;;;;;5107442;28;20463;-65
2021/11/18 07:01:56;;;;;;;39.78;7.55;;;;;;;;;;5107691;28;20159;-65
2021/11/18 07:04:22;;;;;;;55.92;8.50;;;;;;;;;;5109373;28;20073;-66
2021/11/18 07:06:48;;;;;;;45.92;5.93;;;;;;;;;;5110187;28;20034;-66
2021/11/18 07:09:15;;;;;;;54.03;8.93;;;;;;;;;;5107662;28;20055;-65
2021/11/18 07:11:41;;;;;;;68.85;9.52;;;;;;;;;;5107942;28;20095;-66
2021/11/18 07:14:07;;;;;;;41.63;8.07;;;;;;;;;;5109763;28;20454;-66
2021/11/18 07:16:33;;;;;;;51.38;6.97;;;;;;;;;;5107553;28;20030;-67
2021/11/18 07:19:04;;;;;;;18.88;5.70;;;;;;;;;;5111183;28;20066;-67
2021/11/18 07:21:32;;;;;;;23.35;5.03;;;;;;;;;;5108283;28;20455;-67
2021/11/18 07:23:58;;;;;;;13.13;5.07;;;;;;;;;;5107955;28;20058;-66
2021/11/18 07:26:25;;;;;;;29.20;5.00;;;;;;;;;;5107377;28;20016;-66
2021/11/18 07:28:51;;;;;;;37.17;5.63;;;;;;;;;;5107655;28;20440;-66
2021/11/18 07:31:17;;;;;;;27.88;5.10;;;;;;;;;;5108391;28;20075;-67
2021/11/18 07:33:43;;;;;;;27.27;4.82;;;;;;;;;;5108877;28;20496;-67
2021/11/18 07:36:10;;;;;;;7.72;4.38;;;;;;;;;;5107762;28;20023;-66
2021/11/18 07:38:36;;;;;;;7.72;4.50;;;;;;;;;;5106853;28;20035;-68
2021/11/18 07:41:03;;;;;;;5.70;3.33;;;;;;;;;;5107494;28;20012;-65
2021/11/18 07:43:31;;;;;;;4.70;2.38;;;;;;;;;;5093578;28;20031;-65
2021/11/18 07:45:58;;;;;;;3.75;2.17;;;;;;;;;;5106608;28;20105;-67
2021/11/18 07:48:25;;;;;;;4.82;2.70;;;;;;;;;;5107219;28;20436;-64
2021/11/18 07:50:51;;;;;;;4.63;2.80;;;;;;;;;;5107031;28;20034;-65
2021/11/18 07:53:17;;;;;;;5.38;2.72;;;;;;;;;;5107419;28;20024;-65
2021/11/18 07:55:43;;;;;;;6.00;2.60;;;;;;;;;;5107490;28;20103;-65
2021/11/18 07:58:09;;;;;;;6.63;2.22;;;;;;;;;;5108863;28;20376;-65
2021/11/18 08:00:36;;;;;;;4.78;2.40;;;;;;;;;;5108550;28;20157;-65
2021/11/18 08:03:06;;;;;;;3.92;2.38;;;;;;;;;;5107834;28;20047;-65
2021/11/18 08:05:32;;;;;;;3.78;2.08;;;;;;;;;;5109398;28;20027;-65
2021/11/18 08:07:58;;;;;;;3.80;2.30;;;;;;;;;;5111009;28;20023;-65
2021/11/18 08:10:24;;;;;;;5.90;2.60;;;;;;;;;;5111743;28;20040;-66
2021/11/18 08:12:50;;;;;;;5.25;2.45;;;;;;;;;;5113211;28;20176;-65
2021/11/18 08:15:18;;;;;;;4.00;2.40;;;;;;;;;;5113336;28;20028;-65
2021/11/18 08:17:44;;;;;;;3.63;2.58;;;;;;;;;;5109901;28;20402;-65
2021/11/18 08:20:10;;;;;;;3.30;2.40;;;;;;;;;;5109543;28;20398;-65
2021/11/18 08:22:37;;;;;;;3.05;1.98;;;;;;;;;;5110919;28;20064;-65
2021/11/18 08:25:04;;;;;;;5.65;2.17;;;;;;;;;;5113564;28;20047;-66
2021/11/18 08:27:32;;;;;;;4.25;2.25;;;;;;;;;;5111270;28;20035;-65
2021/11/18 08:29:58;;;;;;;5.53;2.47;;;;;;;;;;5110360;28;20098;-65
2021/11/18 08:32:23;;;;;;;6.28;2.35;;;;;;;;;;5110410;28;20479;-65
2021/11/18 08:34:49;;;;;;;3.53;2.00;;;;;;;;;;5109727;28;20028;-65
2021/11/18 08:37:16;;;;;;;3.05;2.00;;;;;;;;;;5112758;28;20142;-67
2021/11/18 08:39:43;;;;;;;5.90;2.90;;;;;;;;;;5111938;28;20031;-67
2021/11/18 08:42:10;;;;;;;6.03;3.00;;;;;;;;;;5109906;28;20036;-67
2021/11/18 08:44:37;;;;;;;5.05;3.30;;;;;;;;;;5108319;28;20094;-67
2021/11/18 08:47:04;;;;;;;8.80;3.25;;;;;;;;;;5109774;28;20495;-66
2021/11/18 08:49:31;;;;;;;7.90;3.10;;;;;;;;;;5104751;28;20475;-66
2021/11/18 08:51:57;;;;;;;4.80;2.50;;;;;;;;;;5109633;28;20072;-66
2021/11/18 08:54:25;;;;;;;3.88;1.75;;;;;;;;;;5110261;28;20024;-66
2021/11/18 08:56:52;;;;;;;3.88;2.00;;;;;;;;;;5109899;28;20051;-66
2021/11/18 08:59:19;;;;;;;4.43;2.28;;;;;;;;;;5108067;28;20392;-66
2021/11/18 09:01:47;;;;;;;3.75;2.13;;;;;;;;;;5109979;28;20020;-66
2021/11/18 09:04:13;;;;;;;;;;;;;;;;;;5112987;28;20031;-64
2021/11/18 09:06:40;;;;;;;4.05;1.92;;;;;;;;;;5111267;28;19904;-66
2021/11/18 09:09:06;;;;;;;2.97;1.45;;;;;;;;;;5109082;28;20023;-66
2021/11/18 09:11:33;;;;;;;6.22;1.50;;;;;;;;;;5109414;28;20380;-66
2021/11/18 09:13:59;;;;;;;1.73;1.10;;;;;;;;;;5111928;28;20065;-66
2021/11/18 09:16:26;;;;;;;2.50;1.38;;;;;;;;;;5110678;28;20692;-64
2021/11/18 09:18:53;;;;;;;4.00;1.55;;;;;;;;;;5111931;28;20042;-66
2021/11/18 09:21:21;;;;;;;2.15;1.40;;;;;;;;;;5109866;28;20023;-66
2021/11/18 09:23:50;;;;;;;4.63;1.60;;;;;;;;;;5107653;28;20390;-65
2021/11/18 09:26:16;;;;;;;2.40;1.50;;;;;;;;;;5109331;28;20019;-66
2021/11/18 09:28:42;;;;;;;2.10;1.45;;;;;;;;;;5109069;28;20028;-66
2021/11/18 09:31:10;;;;;;;1.90;1.10;;;;;;;;;;5111790;28;20533;-66
2021/11/18 09:33:36;;;;;;;5.65;1.15;;;;;;;;;;5110453;28;20099;-66
2021/11/18 09:36:04;;;;;;;3.20;1.02;;;;;;;;;;5109269;28;20110;-66
2021/11/18 09:38:30;;;;;;;;;;;;;;;;;;5108945;28;20023;-63
2021/11/18 09:41:01;;;;;;;3.63;1.17;;;;;;;;;;5109361;28;19934;-66
2021/11/18 09:43:47;;;;;;;2.65;1.27;;;;;;;;;;5111263;28;20103;-66
2021/11/18 09:46:32;;;;;;;3.38;1.75;;;;;;;;;;5097746;28;20035;-66
2021/11/18 09:49:17;;;;;;;3.08;1.33;;;;;;;;;;5112381;28;20028;-66
2021/11/18 09:51:43;;;;;;;2.33;1.40;;;;;;;;;;5110867;28;20467;-66
2021/11/18 09:54:21;;;;;;;2.30;1.40;;;;;;;;;;5107975;28;20085;-66
2021/11/18 09:56:54;;;;;;;1.00;0.90;;;;;;;;;;5109102;28;20094;-66
2021/11/18 09:59:20;;;;;;;2.17;1.20;;;;;;;;;;5108671;28;20387;-66
2021/11/18 10:02:05;;;;;;;2.60;1.00;;;;;;;;;;5110516;28;20020;-66
2021/11/18 10:04:49;;;;;;;2.80;1.00;;;;;;;;;;5099943;28;20019;-66
2021/11/18 10:07:36;;;;;;;3.13;1.10;;;;;;;;;;5109366;28;20103;-66
2021/11/18 10:10:07;;;;;;;3.77;1.83;;;;;;;;;;5107562;28;20120;-66
2021/11/18 10:12:59;;;;;;;3.38;0.93;;;;;;;;;;5110879;28;20027;-65
2021/11/18 10:15:36;;;;;;;1.42;1.08;;;;;;;;;;5106827;28;20071;-65
2021/11/18 10:18:05;;;;;;;2.03;0.80;;;;;;;;;;5107793;28;20035;-66
2021/11/18 10:20:33;;;;;;;1.42;0.80;;;;;;;;;;5107818;28;20071;-66
2021/11/18 10:23:03;;;;;;;1.67;0.63;;;;;;;;;;5108605;28;20023;-66
2021/11/18 10:25:34;;;;;;;3.28;1.13;;;;;;;;;;5107605;28;20019;-66
2021/11/18 10:28:19;;;;;;;5.22;0.88;;;;;;;;;;5107816;28;20024;-65
2021/11/18 10:31:07;;;;;;;1.70;0.43;;;;;;;;;;5110132;28;20058;-65
2021/11/18 10:33:42;;;;;;;1.35;0.80;;;;;;;;;;5106819;28;20023;-65
2021/11/18 10:36:16;;;;;;;1.92;0.88;;;;;;;;;;5106007;28;20026;-66
2021/11/18 10:38:49;;;;;;;3.50;0.90;;;;;;;;;;5107974;28;20031;-66
2021/11/18 10:41:26;;;;;;;1.75;1.00;;;;;;;;;;5107858;28;20028;-65
2021/11/18 10:44:06;;;;;;;1.45;1.10;;;;;;;;;;5109947;28;20475;-65
2021/11/18 10:46:34;;;;;;;1.48;0.80;;;;;;;;;;5092434;28;20047;-65
2021/11/18 10:49:03;;;;;;;3.33;0.45;;;;;;;;;;5111803;28;20020;-65
2021/11/18 10:51:40;;;;;;;1.25;0.68;;;;;;;;;;5108257;28;20047;-65
2021/11/18 10:54:08;;;;;;;1.07;0.67;;;;;;;;;;5106996;28;20502;-64
2021/11/18 10:56:40;;;;;;;2.17;0.60;;;;;;;;;;5108155;28;20275;-65
2021/11/18 10:59:11;;;;;;;2.65;0.60;;;;;;;;;;5107978;28;20055;-64
2021/11/18 11:01:48;;;;;;;0.85;0.50;;;;;;;;;;5108122;28;20077;-65
2021/11/18 11:04:52;;;;;;;3.30;0.60;;;;;;;;;;5110157;28;20028;-65
2021/11/18 11:07:31;;;;;;;3.35;0.40;;;;;;;;;;5029270;28;20286;-65
2021/11/18 11:09:57;;;;;;;1.00;0.47;;;;;;;;;;5032808;28;20029;-65
2021/11/18 11:12:31;;;;;;;1.05;0.63;;;;;;;;;;5057347;28;20506;-65
2021/11/18 11:15:14;;;;;;;1.35;0.75;;;;;;;;;;5106242;28;20053;-65
2021/11/18 11:17:59;;;;;;;0.70;0.47;;;;;;;;;;5107986;28;20039;-65
2021/11/18 11:20:28;;;;;;;1.50;0.68;;;;;;;;;;5108791;28;20372;-65
2021/11/18 11:23:05;;;;;;;3.17;0.80;;;;;;;;;;5107372;28;20024;-65
2021/11/18 11:25:36;;;;;;;0.98;0.70;;;;;;;;;;5107513;28;20458;-65
2021/11/18 11:28:21;;;;;;;1.15;0.70;;;;;;;;;;5098737;28;20031;-65
2021/11/18 11:30:46;;;;;;;0.80;0.60;;;;;;;;;;5095901;28;20040;-65
2021/11/18 11:33:33;;;;;;;0.80;0.70;;;;;;;;;;5098276;28;20509;-65
2021/11/18 11:35:59;;;;;;;0.82;0.65;;;;;;;;;;5088637;28;20092;-65
2021/11/18 11:38:43;;;;;;;2.63;0.68;;;;;;;;;;5096887;28;20039;-66
2021/11/18 11:41:27;;;;;;;0.70;0.65;;;;;;;;;;5098589;28;20031;-65
2021/11/18 11:44:00;;;;;;;1.42;0.80;;;;;;;;;;5107328;28;20027;-65
2021/11/18 11:46:44;;;;;;;7.25;0.80;;;;;;;;;;5108177;28;20043;-65
2021/11/18 11:49:16;;;;;;;2.25;0.70;;;;;;;;;;5105744;28;20111;-65
2021/11/18 11:51:42;;;;;;;2.08;0.77;;;;;;;;;;5104382;28;20020;-65
2021/11/18 11:54:27;;;;;;;1.75;0.70;;;;;;;;;;5106294;28;20032;-65
2021/11/18 11:56:55;;;;;;;1.17;0.80;;;;;;;;;;5097497;28;20110;-65
2021/11/18 11:59:23;;;;;;;1.17;0.80;;;;;;;;;;5109510;28;20510;-65
2021/11/18 12:01:49;;;;;;;;;;;;;;;;;;5110470;28;20080;-65
2021/11/18 12:04:25;;;;;;;2.63;0.60;;;;;;;;;;5110732;28;20564;-65
2021/11/18 12:07:00;;;;;;;0.50;0.50;;;;;;;;;;5111545;28;20371;-65
2021/11/18 12:09:40;;;;;;;1.98;0.55;;;;;;;;;;5101801;28;20446;-65
2021/11/18 12:12:12;;;;;;;1.67;0.70;;;;;;;;;;5108489;28;20475;-65
2021/11/18 12:14:40;;;;;;;0.50;0.50;;;;;;;;;;5111749;28;20457;-65
2021/11/18 12:17:08;;;;;;;2.15;0.73;;;;;;;;;;5109452;28;20422;-66
2021/11/18 12:19:34;;;;;;;;;;;;;;;;;;5110985;28;20043;-63
2021/11/18 12:22:01;;;;;;;1.27;0.70;;;;;;;;;;5113788;28;20291;-63
2021/11/18 12:24:47;;;;;;;2.53;1.05;;;;;;;;;;5109216;28;20032;-63
2021/11/18 12:27:16;;;;;;;2.42;1.08;;;;;;;;;;5108318;28;20445;-63
2021/11/18 12:29:44;;;;;;;2.10;1.10;;;;;;;;;;5110330;28;20051;-65
2021/11/18 12:32:10;;;;;;;2.20;0.90;;;;;;;;;;5110142;28;20043;-65
2021/11/18 12:34:54;;;;;;;1.85;0.80;;;;;;;;;;5109981;28;20387;-65
2021/11/18 12:37:29;;;;;;;1.50;1.00;;;;;;;;;;5100670;28;20089;-65
2021/11/18 12:40:04;;;;;;;0.90;0.70;;;;;;;;;;5113416;28;20027;-65
2021/11/18 12:42:57;;;;;;;3.13;0.70;;;;;;;;;;5110368;28;20289;-65
2021/11/18 12:45:31;;;;;;;2.65;0.90;;;;;;;;;;5082123;27;20049;-65
2021/11/18 12:48:06;;;;;;;1.30;0.60;;;;;;;;;;5109579;28;20066;-65
2021/11/18 12:50:35;;;;;;;3.90;0.82;;;;;;;;;;5109134;28;20028;-65
2021/11/18 12:53:18;;;;;;;2.97;1.00;;;;;;;;;;5109446;28;20066;-65
2021/11/18 12:56:03;;;;;;;1.52;0.90;;;;;;;;;;5109373;28;20027;-65
2021/11/18 12:58:41;;;;;;;5.05;0.60;;;;;;;;;;5110492;28;20503;-65
2021/11/18 13:01:33;;;;;;;2.97;0.65;;;;;;;;;;5109407;28;20023;-65
2021/11/18 13:04:01;;;;;;;0.70;0.60;;;;;;;;;;5103391;28;20105;-66
2021/11/18 13:06:29;;;;;;;1.17;0.70;;;;;;;;;;5105517;28;20031;-65
2021/11/18 13:09:02;;;;;;;3.03;0.90;;;;;;;;;;5107516;28;20031;-66
2021/11/18 13:11:28;;;;;;;2.35;0.70;;;;;;;;;;5109076;28;20099;-65
2021/11/18 13:14:12;;;;;;;3.00;0.82;;;;;;;;;;5105223;28;20449;-65
2021/11/18 13:16:48;;;;;;;1.00;0.70;;;;;;;;;;5103471;28;20055;-65
2021/11/18 13:19:17;;;;;;;3.67;0.73;;;;;;;;;;5104405;28;20024;-66
2021/11/18 13:21:52;;;;;;;0.82;0.43;;;;;;;;;;5105131;28;20023;-65
2021/11/18 13:24:31;;;;;;;2.75;0.50;;;;;;;;;;5106869;28;20028;-65
2021/11/18 13:26:57;;;;;;;0.73;0.70;;;;;;;;;;5103698;28;20115;-65
2021/11/18 13:29:25;;;;;;;3.35;0.73;;;;;;;;;;5105702;28;20137;-65
2021/11/18 13:31:52;;;;;;;5.53;0.68;;;;;;;;;;5104881;28;20043;-65
2021/11/18 13:34:26;;;;;;;1.27;0.60;;;;;;;;;;5105541;28;20468;-65
2021/11/18 13:37:15;;;;;;;0.73;0.50;;;;;;;;;;5106113;28;20027;-65
2021/11/18 13:39:44;;;;;;;1.75;0.70;;;;;;;;;;5095510;28;20043;-65
2021/11/18 13:42:17;;;;;;;1.75;0.90;;;;;;;;;;5104377;28;20470;-65
2021/11/18 13:44:43;;;;;;;1.30;0.77;;;;;;;;;;5106322;28;20020;-65
2021/11/18 13:47:19;;;;;;;1.48;0.80;;;;;;;;;;5104211;28;20031;-65
2021/11/18 13:49:48;;;;;;;7.43;0.80;;;;;;;;;;5103594;28;20035;-65
2021/11/18 13:52:14;;;;;;;1.23;0.70;;;;;;;;;;5107016;28;20023;-65
2021/11/18 13:54:52;;;;;;;1.17;0.77;;;;;;;;;;5107190;28;20024;-65
2021/11/18 13:57:34;;;;;;;3.80;1.50;;;;;;;;;;5105528;28;20015;-66
2021/11/18 14:00:03;;;;;;;4.32;1.15;;;;;;;;;;5106041;28;20043;-66
2021/11/18 14:02:57;;;;;;;2.97;1.40;;;;;;;;;;5105245;28;20102;-66
2021/11/18 14:05:31;;;;;;;2.97;1.75;;;;;;;;;;5082726;28;20079;-66
2021/11/18 14:08:02;;;;;;;4.43;1.67;;;;;;;;;;5104045;28;20036;-66
2021/11/18 14:10:34;;;;;;;3.65;2.20;;;;;;;;;;5106146;28;20546;-66
2021/11/18 14:13:09;;;;;;;2.40;1.27;;;;;;;;;;5107121;28;20016;-66
2021/11/18 14:15:52;;;;;;;2.30;1.17;;;;;;;;;;5111698;28;20174;-66
2021/11/18 14:18:19;;;;;;;2.00;1.10;;;;;;;;;;5108660;28;20040;-66
2021/11/18 14:20:51;;;;;;;3.20;1.10;;;;;;;;;;5108064;28;20020;-66
2021/11/18 14:23:24;;;;;;;1.67;0.90;;;;;;;;;;5108337;28;20137;-66
2021/11/18 14:26:11;;;;;;;2.50;1.20;;;;;;;;;;5108942;27;20028;-66
2021/11/18 14:28:37;;;;;;;1.52;1.00;;;;;;;;;;5093234;28;20395;-66
2021/11/18 14:31:05;;;;;;;2.42;1.00;;;;;;;;;;5111074;28;20035;-66
2021/11/18 14:33:37;;;;;;;3.13;1.25;;;;;;;;;;5108891;28;20058;-66
2021/11/18 14:36:26;;;;;;;4.82;1.33;;;;;;;;;;5108468;28;20023;-64
2021/11/18 14:38:52;;;;;;;5.90;1.48;;;;;;;;;;5107804;28;20077;-66
2021/11/18 14:41:44;;;;;;;4.70;1.40;;;;;;;;;;5108379;28;20024;-66
2021/11/18 14:44:12;;;;;;;5.85;2.03;;;;;;;;;;5103925;28;20055;-66
2021/11/18 14:46:56;;;;;;;3.78;1.48;;;;;;;;;;5107694;28;20077;-66
2021/11/18 14:49:57;;;;;;;3.05;1.25;;;;;;;;;;5109636;28;20055;-66
2021/11/18 14:52:34;;;;;;;2.13;1.10;;;;;;;;;;5047497;28;20029;-66
2021/11/18 14:55:14;;;;;;;4.80;1.20;;;;;;;;;;5102985;28;20524;-66